Time;durP1;ratioP1;P1;durP2;ratioP2;P2;SDS_P1;SDS_P2;PMS_P1;PMS_P2;Temp;Humidity;BMP_temperature;BMP_pressure;BME280_temperature;BME280_humidity;BME280_pressure;Samples;Min_cycle;Max_cycle;Signal;HPM_P1;HPM_P2
2022/04/21 00:00:13;;;;;;;5.57;2.08;;;11.20;99.90;;;;;;20900720;28;20482;-39
2022/04/21 00:10:14;;;;;;;4.72;1.80;;;11.00;99.90;;;;;;20918067;28;20036;-39
2022/04/21 00:20:15;;;;;;;4.57;1.65;;;10.80;99.90;;;;;;20912080;28;20051;-39
2022/04/21 00:30:18;;;;;;;5.00;1.77;;;10.80;99.90;;;;;;20907961;28;20048;-39
2022/04/21 00:40:21;;;;;;;2.78;1.48;;;10.60;99.90;;;;;;20913988;28;20044;-39
2022/04/21 00:50:30;;;;;;;2.80;1.58;;;10.50;99.90;;;;;;20922788;28;20033;-39
2022/04/21 01:00:31;;;;;;;3.88;1.60;;;10.50;99.90;;;;;;20908655;28;20058;-40
2022/04/21 01:10:35;;;;;;;5.80;1.63;;;10.40;99.90;;;;;;20914484;28;20048;-39
2022/04/21 01:20:37;;;;;;;4.20;1.83;;;10.20;99.90;;;;;;20895694;28;20033;-39
2022/04/21 01:30:38;;;;;;;3.92;2.15;;;10.10;99.90;;;;;;20887209;28;20033;-39
2022/04/21 01:50:59;;;;;;;4.07;2.00;;;9.80;99.90;;;;;;20904221;28;20519;-39
2022/04/21 02:01:01;;;;;;;5.90;1.85;;;9.80;99.90;;;;;;20885512;28;20527;-39
2022/04/21 02:11:02;;;;;;;4.90;1.88;;;9.70;99.90;;;;;;20902403;28;20045;-39
2022/04/21 02:21:03;;;;;;;4.03;1.95;;;9.60;99.90;;;;;;20889931;28;20044;-39
2022/04/21 02:31:04;;;;;;;4.25;1.92;;;9.50;99.90;;;;;;20906429;28;20055;-39
2022/04/21 02:41:06;;;;;;;4.10;1.52;;;9.50;99.90;;;;;;20893190;28;20037;-39
2022/04/21 02:51:09;;;;;;;3.08;1.48;;;9.40;99.90;;;;;;20890379;28;20420;-39
2022/04/21 03:01:11;;;;;;;2.20;1.15;;;9.50;99.90;;;;;;20901819;28;20044;-39
2022/04/21 03:11:12;;;;;;;4.68;1.95;;;9.50;99.90;;;;;;20899161;28;20032;-39
2022/04/21 03:31:33;;;;;;;3.92;1.88;;;9.50;99.90;;;;;;20885695;28;20103;-39
2022/04/21 03:41:36;;;;;;;8.25;1.50;;;9.30;99.90;;;;;;20878394;28;20056;-39
2022/04/21 03:51:37;;;;;;;3.40;1.85;;;9.20;99.90;;;;;;20892632;28;20064;-39
2022/04/21 04:01:38;;;;;;;4.65;2.00;;;9.00;99.90;;;;;;20891694;28;20112;-39
2022/04/21 04:11:39;;;;;;;4.13;1.77;;;9.00;99.90;;;;;;20897391;28;20420;-39
2022/04/21 04:21:41;;;;;;;3.72;1.63;;;8.90;99.90;;;;;;20889894;28;20036;-39
2022/04/21 04:31:42;;;;;;;6.10;1.38;;;8.80;99.90;;;;;;20887320;28;20044;-39
2022/04/21 04:52:04;;;;;;;5.00;1.77;;;8.50;99.90;;;;;;20881804;28;20487;-39
2022/04/21 05:02:05;;;;;;;3.92;1.33;;;8.50;99.90;;;;;;20914155;28;20044;-39
2022/04/21 05:12:07;;;;;;;3.85;1.80;;;8.40;99.90;;;;;;20908663;28;20162;-39
2022/04/21 05:22:12;;;;;;;4.13;1.45;;;8.30;99.90;;;;;;20910200;28;20450;-39
2022/04/21 05:32:18;;;;;;;3.88;1.50;;;8.40;99.90;;;;;;20908416;28;20044;-39
2022/04/21 05:42:23;;;;;;;2.97;1.70;;;8.50;99.90;;;;;;20900836;28;20058;-39
2022/04/21 05:52:28;;;;;;;17.80;2.50;;;8.70;99.90;;;;;;20892539;28;20408;-39
2022/04/21 06:02:30;;;;;;;3.63;1.88;;;9.30;99.90;;;;;;20904081;28;20091;-39
2022/04/21 06:12:30;;;;;;;2.83;1.45;;;9.40;99.90;;;;;;20905419;28;20044;-39
2022/04/21 06:22:32;;;;;;;3.28;1.17;;;9.60;99.90;;;;;;20843251;28;20037;-39
2022/04/21 06:32:33;;;;;;;2.17;0.88;;;10.00;99.90;;;;;;20882333;28;20047;-39
2022/04/21 06:42:35;;;;;;;3.88;1.95;;;10.40;99.90;;;;;;20867564;28;20037;-39
2022/04/21 06:52:37;;;;;;;4.57;1.75;;;10.80;99.90;;;;;;20893170;28;20037;-39
2022/04/21 07:02:38;;;;;;;2.80;1.35;;;11.00;99.90;;;;;;20859599;28;20041;-40
2022/04/21 07:12:39;;;;;;;3.10;1.42;;;11.30;99.90;;;;;;20872933;28;20049;-40
2022/04/21 07:22:40;;;;;;;2.67;1.23;;;11.60;99.90;;;;;;20846955;28;20423;-38
2022/04/21 07:32:44;;;;;;;2.65;1.10;;;12.00;99.90;;;;;;20863274;28;20381;-38
2022/04/21 07:42:45;;;;;;;2.42;1.10;;;12.30;99.90;;;;;;20865042;28;20048;-38
2022/04/21 08:03:09;;;;;;;2.85;1.33;;;12.60;99.90;;;;;;20844760;28;20087;-38
2022/04/21 08:13:17;;;;;;;2.05;1.25;;;12.70;99.90;;;;;;20881454;28;20048;-38
2022/04/21 08:23:18;;;;;;;3.33;1.20;;;13.10;99.90;;;;;;20875442;28;20381;-38
2022/04/21 08:33:19;;;;;;;3.85;1.25;;;13.40;99.90;;;;;;20872031;28;20041;-38
2022/04/21 08:43:21;;;;;;;4.70;1.25;;;13.70;99.90;;;;;;20874499;28;20040;-38
2022/04/21 08:53:24;;;;;;;2.50;1.30;;;14.10;99.90;;;;;;20879651;28;20037;-38
2022/04/21 09:03:26;;;;;;;3.85;1.27;;;14.40;99.90;;;;;;20884528;28;20052;-38
2022/04/21 09:13:32;;;;;;;2.00;0.60;;;14.60;99.90;;;;;;20894058;28;20032;-38
2022/04/21 09:23:34;;;;;;;1.77;0.38;;;15.10;97.80;;;;;;20867737;28;20040;-38
2022/04/21 09:33:39;;;;;;;1.63;0.98;;;15.50;96.30;;;;;;20864679;28;20407;-38
2022/04/21 09:43:42;;;;;;;1.40;0.55;;;15.70;95.30;;;;;;20860673;28;20403;-39
2022/04/21 09:53:48;;;;;;;1.13;0.52;;;16.10;93.70;;;;;;20887305;28;20602;-38
2022/04/21 10:03:50;;;;;;;1.23;0.50;;;16.20;93.30;;;;;;20897384;28;20047;-38
2022/04/21 10:13:56;;;;;;;2.13;0.38;;;16.50;91.30;;;;;;20904016;28;20033;-38
2022/04/21 10:24:01;;;;;;;0.75;0.30;;;16.60;89.20;;;;;;20822131;28;20044;-38
2022/04/21 10:34:06;;;;;;;0.82;0.30;;;17.10;88.20;;;;;;20884920;28;20597;-38
2022/04/21 10:44:15;;;;;;;0.32;0.20;;;17.20;90.60;;;;;;20889417;28;20036;-38
2022/04/21 11:04:36;;;;;;;2.30;0.50;;;18.00;87.40;;;;;;20898697;28;20088;-38
2022/04/21 11:14:39;;;;;;;1.65;0.52;;;18.00;86.70;;;;;;20896541;28;20036;-38
2022/04/21 11:24:55;;;;;;;0.68;0.30;;;18.30;83.60;;;;;;20894552;28;20043;-39
2022/04/21 11:34:58;;;;;;;1.38;0.50;;;18.70;86.30;;;;;;20883431;28;21050;-39
2022/04/21 11:44:59;;;;;;;1.33;0.50;;;18.70;81.50;;;;;;20879454;28;20052;-39
2022/04/21 11:55:01;;;;;;;1.08;0.40;;;18.70;85.20;;;;;;20858114;28;20432;-39
2022/04/21 12:15:27;;;;;;;1.52;0.60;;;19.50;80.60;;;;;;20869533;28;20295;-39
2022/04/21 12:25:32;;;;;;;1.92;0.73;;;19.70;81.40;;;;;;20862713;28;20060;-39
2022/04/21 12:35:47;;;;;;;2.38;1.38;;;19.90;82.40;;;;;;20909742;28;20044;-39
2022/04/21 12:45:48;;;;;;;2.83;1.80;;;19.70;84.60;;;;;;20864707;28;20396;-39
2022/04/21 12:55:49;;;;;;;3.03;1.13;;;19.90;87.00;;;;;;20781604;28;20791;-38
2022/04/21 13:05:53;;;;;;;1.08;0.60;;;20.30;82.20;;;;;;20834917;28;21146;-39
2022/04/21 13:15:55;;;;;;;1.55;0.73;;;20.50;82.60;;;;;;20885934;28;20043;-38
2022/04/21 13:25:56;;;;;;;1.42;0.60;;;20.40;84.80;;;;;;20848430;28;20055;-39
2022/04/21 13:35:57;;;;;;;1.38;0.50;;;20.80;80.30;;;;;;20855715;28;20216;-39
2022/04/21 13:45:58;;;;;;;1.35;0.57;;;21.10;79.40;;;;;;20859133;28;20048;-39
2022/04/21 13:56:06;;;;;;;1.00;0.50;;;21.30;80.40;;;;;;20849642;28;20071;-39
2022/04/21 14:06:07;;;;;;;;;;;21.30;79.70;;;;;;20879511;28;20036;-39
2022/04/21 14:16:08;;;;;;;0.98;0.40;;;21.20;74.70;;;;;;20879701;28;20344;-39
2022/04/21 14:26:11;;;;;;;1.92;0.75;;;20.40;78.10;;;;;;20871004;28;20519;-38
2022/04/21 14:36:12;;;;;;;2.45;0.80;;;20.00;81.30;;;;;;20878807;28;20040;-38
2022/04/21 14:46:13;;;;;;;2.33;1.38;;;19.90;84.30;;;;;;20880417;28;20028;-38
2022/04/21 14:56:15;;;;;;;2.63;0.90;;;19.60;81.20;;;;;;20885247;28;20052;-38
2022/04/21 15:06:16;;;;;;;1.52;0.80;;;19.40;83.70;;;;;;20882609;28;20055;-39
2022/04/21 15:16:17;;;;;;;2.13;0.88;;;19.20;84.20;;;;;;20872620;28;20055;-39
2022/04/21 15:26:18;;;;;;;2.33;0.80;;;19.10;85.70;;;;;;20883294;28;20040;-39
2022/04/21 15:36:20;;;;;;;2.60;0.98;;;19.00;86.40;;;;;;20912943;28;20053;-39
2022/04/21 15:46:22;;;;;;;4.00;0.95;;;18.90;86.50;;;;;;20895967;28;20045;-39
2022/04/21 16:06:43;;;;;;;4.78;1.15;;;19.00;88.00;;;;;;20909128;28;20040;-39
2022/04/21 16:16:44;;;;;;;3.55;0.90;;;18.70;89.10;;;;;;20901741;28;20415;-39
2022/04/21 16:26:46;;;;;;;2.72;1.00;;;18.60;90.40;;;;;;20912472;28;20350;-39
2022/04/21 16:36:48;;;;;;;2.90;0.90;;;18.40;90.50;;;;;;20837900;28;20484;-39
2022/04/21 16:46:49;;;;;;;1.63;0.70;;;18.10;90.80;;;;;;20869953;28;20506;-39
2022/04/21 16:56:50;;;;;;;1.58;0.60;;;18.00;91.10;;;;;;20861004;28;20071;-39
2022/04/21 17:06:52;;;;;;;5.97;0.77;;;17.90;91.00;;;;;;20897252;28;20473;-39
2022/04/21 17:16:53;;;;;;;5.30;3.05;;;17.70;91.70;;;;;;20883531;28;20508;-39
2022/04/21 17:26:54;;;;;;;1.83;0.68;;;17.50;92.00;;;;;;20886509;28;20480;-39
2022/04/21 17:36:55;;;;;;;1.33;0.55;;;17.30;92.90;;;;;;20907751;28;20032;-39
2022/04/21 17:46:56;;;;;;;2.38;0.93;;;17.10;93.00;;;;;;20898670;28;20048;-39
2022/04/21 17:56:57;;;;;;;3.05;1.10;;;17.00;93.20;;;;;;20880150;28;20040;-39
2022/04/21 18:06:58;;;;;;;3.72;1.30;;;16.80;93.90;;;;;;20878087;28;20049;-39
2022/04/21 18:17:00;;;;;;;4.75;0.80;;;16.70;94.00;;;;;;20909907;28;20406;-39
2022/04/21 18:27:03;;;;;;;1.77;0.90;;;16.50;93.90;;;;;;20873172;28;20040;-39
2022/04/21 18:37:05;;;;;;;3.25;1.02;;;16.40;93.90;;;;;;20902309;28;20052;-39
2022/04/21 18:47:07;;;;;;;2.63;0.80;;;16.30;94.70;;;;;;20921518;28;20135;-39
2022/04/21 18:57:08;;;;;;;3.50;1.05;;;16.20;94.50;;;;;;20926388;28;20475;-39
2022/04/21 19:07:09;;;;;;;3.60;1.23;;;16.20;94.40;;;;;;20923826;28;21014;-39
2022/04/21 19:17:10;;;;;;;2.22;1.00;;;16.10;94.60;;;;;;20909601;28;20036;-39
2022/04/21 19:27:17;;;;;;;2.70;1.35;;;16.00;94.80;;;;;;20904602;28;20101;-39
2022/04/21 19:37:18;;;;;;;2.65;0.98;;;15.90;95.40;;;;;;20902975;28;20029;-39
2022/04/21 19:47:19;;;;;;;1.95;0.90;;;15.80;96.20;;;;;;20916462;28;20056;-39
2022/04/21 19:57:22;;;;;;;1.58;0.70;;;15.70;97.40;;;;;;20933002;28;20116;-39
2022/04/21 20:17:43;;;;;;;3.50;1.35;;;15.40;98.40;;;;;;20931199;28;20302;-39
2022/04/21 20:27:44;;;;;;;2.90;1.30;;;15.30;99.60;;;;;;20916082;28;20041;-39
2022/04/21 20:37:48;;;;;;;4.15;1.73;;;15.20;99.90;;;;;;20935344;28;20031;-39
2022/04/21 20:47:51;;;;;;;3.78;1.35;;;15.20;99.90;;;;;;20930458;28;20033;-39
2022/04/21 20:57:52;;;;;;;5.03;1.90;;;15.20;99.90;;;;;;20908135;28;20024;-39
2022/04/21 21:07:54;;;;;;;3.00;1.48;;;15.10;99.90;;;;;;20904844;28;20052;-39
2022/04/21 21:17:55;;;;;;;4.53;2.00;;;14.90;99.90;;;;;;20907750;28;20369;-39
2022/04/21 21:27:57;;;;;;;4.38;1.40;;;14.80;99.90;;;;;;20925523;28;20043;-39
2022/04/21 21:37:58;;;;;;;2.65;1.25;;;14.70;99.90;;;;;;20922906;28;20502;-38
2022/04/21 21:47:59;;;;;;;3.50;1.58;;;14.60;99.90;;;;;;20923199;28;20059;-39
2022/04/21 21:58:02;;;;;;;2.22;1.20;;;14.60;99.90;;;;;;20925212;28;20033;-39
2022/04/21 22:08:03;;;;;;;5.03;1.55;;;14.50;99.90;;;;;;20917040;28;20049;-39
2022/04/21 22:18:04;;;;;;;4.30;1.63;;;14.30;99.90;;;;;;20901485;28;20063;-39
2022/04/21 22:28:06;;;;;;;5.68;2.17;;;14.20;99.90;;;;;;20907370;28;20040;-38
2022/04/21 22:38:08;;;;;;;4.07;2.47;;;14.00;99.90;;;;;;20907177;28;20045;-39
2022/04/21 22:48:09;;;;;;;3.22;1.60;;;13.80;99.90;;;;;;20908068;28;20045;-38
2022/04/21 22:58:11;;;;;;;2.75;1.13;;;13.60;99.90;;;;;;20908207;28;20032;-38
2022/04/21 23:08:12;;;;;;;3.10;0.90;;;13.50;99.90;;;;;;20898812;28;20048;-39
2022/04/21 23:18:13;;;;;;;2.53;1.13;;;13.50;99.90;;;;;;20887431;28;20045;-39
2022/04/21 23:28:14;;;;;;;2.72;1.02;;;13.50;99.90;;;;;;20899271;28;20337;-38
2022/04/21 23:38:29;;;;;;;2.22;0.80;;;13.40;99.90;;;;;;20908224;28;20052;-39
2022/04/21 23:48:30;;;;;;;2.10;0.77;;;13.30;99.90;;;;;;20910396;28;20042;-39
2022/04/21 23:58:31;;;;;;;1.17;0.82;;;13.20;99.90;;;;;;20922178;28;20037;-39
